Main page
METAR-TAF:

METAR-TAF

Airports :

RAF Wittering

Wittering, England

latitude: 52-37N, longitude: 000-28W, elevation: 84 m

Current weather observation

The report was made 45 minutes ago, at 12:50 UTC
Wind 11 kt from the South
Temperature 14°C
Humidity 77%
Pressure 1019 hPa
Visibility 10 km or more
Scattered clouds at a height of 1600 ft

METAR: EGXT 151250Z 19011KT 9999 SCT016 14/10 Q1019 WHT

Time: 13:35 (13:35 UTC)

Forecast

The report was made 2 hours and 37 minutes ago, at 10:58 UTC
Forecast valid from 15 at 12 UTC to 15 at 18 UTC
Wind 6 kt from the South
Visibility 10 km or more
Broken clouds at a height of 1200 ft
Temporary
from 15 at 12 UTC to 15 at 18 UTC
Few clouds at a height of 1200 ft
Becoming
from 15 at 16 UTC to 15 at 18 UTC
Visibility: 6000 m
haze

TAF: EGXT 151058Z 1512/1518 18006KT 9999 BKN012 TEMPO 1512/1518 FEW012 BECMG 1516/1518 6000 HZ

Weather observations and forecasts of more than 4000 airports (METAR and TAF reports).

The available stations are represented by yellow and red dots on the map.

Hover mouse over dot to see the name of the station.

Then click to see weather observations and forecasts.

To change the map : click on the green buttons with a black cross to zoom in, on the green button with a dash to zoom out, or on the green arrows for adjacent maps.


METAR-TAF: